sensor_id;sensor_type;location;lat;lon;timestamp;temperature;humidity
15103;DHT22;7652;53.584;9.998;2023-06-19T00:01:17;21.90;99.90
15103;DHT22;7652;53.584;9.998;2023-06-19T00:04:39;21.90;99.90
15103;DHT22;7652;53.584;9.998;2023-06-19T00:08:02;21.90;99.90
15103;DHT22;7652;53.584;9.998;2023-06-19T00:11:26;21.90;99.90
15103;DHT22;7652;53.584;9.998;2023-06-19T00:14:48;21.90;99.90
15103;DHT22;7652;53.584;9.998;2023-06-19T00:18:09;21.90;99.90
15103;DHT22;7652;53.584;9.998;2023-06-19T00:21:31;21.90;99.90
15103;DHT22;7652;53.584;9.998;2023-06-19T00:24:54;21.90;99.90
15103;DHT22;7652;53.584;9.998;2023-06-19T00:28:16;21.80;99.90
15103;DHT22;7652;53.584;9.998;2023-06-19T00:31:40;21.90;99.90
15103;DHT22;7652;53.584;9.998;2023-06-19T00:35:01;21.90;99.90
15103;DHT22;7652;53.584;9.998;2023-06-19T00:38:23;21.90;99.90
15103;DHT22;7652;53.584;9.998;2023-06-19T00:41:46;21.90;99.90
15103;DHT22;7652;53.584;9.998;2023-06-19T00:45:09;21.80;99.90
15103;DHT22;7652;53.584;9.998;2023-06-19T00:48:31;21.80;99.90
15103;DHT22;7652;53.584;9.998;2023-06-19T00:51:53;21.70;99.90
15103;DHT22;7652;53.584;9.998;2023-06-19T00:55:16;21.70;99.90
15103;DHT22;7652;53.584;9.998;2023-06-19T00:58:38;21.80;99.90
15103;DHT22;7652;53.584;9.998;2023-06-19T01:02:00;21.70;99.90
15103;DHT22;7652;53.584;9.998;2023-06-19T01:05:23;21.70;99.90
15103;DHT22;7652;53.584;9.998;2023-06-19T01:08:51;21.60;99.90
15103;DHT22;7652;53.584;9.998;2023-06-19T01:12:18;21.70;99.90
15103;DHT22;7652;53.584;9.998;2023-06-19T01:15:41;21.70;99.90
15103;DHT22;7652;53.584;9.998;2023-06-19T01:19:04;21.70;99.90
15103;DHT22;7652;53.584;9.998;2023-06-19T01:22:28;21.70;99.90
15103;DHT22;7652;53.584;9.998;2023-06-19T01:25:50;21.70;99.90
15103;DHT22;7652;53.584;9.998;2023-06-19T01:29:12;21.70;99.90
15103;DHT22;7652;53.584;9.998;2023-06-19T01:32:41;21.60;99.90
15103;DHT22;7652;53.584;9.998;2023-06-19T01:36:05;21.70;99.90
15103;DHT22;7652;53.584;9.998;2023-06-19T01:39:29;21.70;99.90
15103;DHT22;7652;53.584;9.998;2023-06-19T01:42:51;21.50;99.90
15103;DHT22;7652;53.584;9.998;2023-06-19T01:46:13;21.50;99.90
15103;DHT22;7652;53.584;9.998;2023-06-19T01:49:35;21.50;99.90
15103;DHT22;7652;53.584;9.998;2023-06-19T01:52:57;21.50;99.90
15103;DHT22;7652;53.584;9.998;2023-06-19T01:56:20;21.40;99.90
15103;DHT22;7652;53.584;9.998;2023-06-19T01:59:44;21.40;99.90
15103;DHT22;7652;53.584;9.998;2023-06-19T02:03:06;21.50;99.90
15103;DHT22;7652;53.584;9.998;2023-06-19T02:06:29;21.40;99.90
15103;DHT22;7652;53.584;9.998;2023-06-19T02:09:51;21.40;99.90
15103;DHT22;7652;53.584;9.998;2023-06-19T02:13:14;21.40;99.90
15103;DHT22;7652;53.584;9.998;2023-06-19T02:16:35;21.50;99.90
15103;DHT22;7652;53.584;9.998;2023-06-19T02:19:57;21.50;99.90
15103;DHT22;7652;53.584;9.998;2023-06-19T02:23:19;21.50;99.90
15103;DHT22;7652;53.584;9.998;2023-06-19T02:26:41;21.50;99.90
15103;DHT22;7652;53.584;9.998;2023-06-19T02:30:06;21.40;99.90
15103;DHT22;7652;53.584;9.998;2023-06-19T02:33:28;21.30;99.90
15103;DHT22;7652;53.584;9.998;2023-06-19T02:36:49;21.30;99.90
15103;DHT22;7652;53.584;9.998;2023-06-19T02:40:12;21.30;99.90
15103;DHT22;7652;53.584;9.998;2023-06-19T02:43:34;21.20;99.90
15103;DHT22;7652;53.584;9.998;2023-06-19T02:46:57;21.20;99.90
15103;DHT22;7652;53.584;9.998;2023-06-19T02:50:19;21.20;99.90
15103;DHT22;7652;53.584;9.998;2023-06-19T02:53:41;21.20;99.90
15103;DHT22;7652;53.584;9.998;2023-06-19T02:57:04;21.20;99.90
15103;DHT22;7652;53.584;9.998;2023-06-19T03:00:26;21.20;99.90
15103;DHT22;7652;53.584;9.998;2023-06-19T03:03:50;21.20;99.90
15103;DHT22;7652;53.584;9.998;2023-06-19T03:07:12;21.20;99.90
15103;DHT22;7652;53.584;9.998;2023-06-19T03:10:35;21.20;99.90
15103;DHT22;7652;53.584;9.998;2023-06-19T03:13:56;21.10;99.90
15103;DHT22;7652;53.584;9.998;2023-06-19T03:17:18;21.10;99.90
15103;DHT22;7652;53.584;9.998;2023-06-19T03:20:41;21.10;99.90
15103;DHT22;7652;53.584;9.998;2023-06-19T03:24:02;21.20;99.90
15103;DHT22;7652;53.584;9.998;2023-06-19T03:27:24;21.20;99.90
15103;DHT22;7652;53.584;9.998;2023-06-19T03:30:46;21.10;99.90
15103;DHT22;7652;53.584;9.998;2023-06-19T03:34:07;21.10;99.90
15103;DHT22;7652;53.584;9.998;2023-06-19T03:37:30;21.00;99.90
15103;DHT22;7652;53.584;9.998;2023-06-19T03:40:52;21.00;99.90
15103;DHT22;7652;53.584;9.998;2023-06-19T03:44:14;21.00;99.90
15103;DHT22;7652;53.584;9.998;2023-06-19T03:47:35;20.90;99.90
15103;DHT22;7652;53.584;9.998;2023-06-19T03:50:58;21.00;99.90
15103;DHT22;7652;53.584;9.998;2023-06-19T03:54:21;21.10;99.90
15103;DHT22;7652;53.584;9.998;2023-06-19T03:57:42;21.10;99.90
15103;DHT22;7652;53.584;9.998;2023-06-19T04:01:04;21.10;99.90
15103;DHT22;7652;53.584;9.998;2023-06-19T04:04:26;21.10;99.90
15103;DHT22;7652;53.584;9.998;2023-06-19T04:07:48;21.10;99.90
15103;DHT22;7652;53.584;9.998;2023-06-19T04:11:10;21.10;99.90
15103;DHT22;7652;53.584;9.998;2023-06-19T04:14:32;21.10;99.90
15103;DHT22;7652;53.584;9.998;2023-06-19T04:17:54;21.10;99.90
15103;DHT22;7652;53.584;9.998;2023-06-19T04:21:15;21.10;99.90
15103;DHT22;7652;53.584;9.998;2023-06-19T04:24:37;21.10;99.90
15103;DHT22;7652;53.584;9.998;2023-06-19T04:28:00;21.10;99.90
15103;DHT22;7652;53.584;9.998;2023-06-19T04:31:23;21.00;99.90
15103;DHT22;7652;53.584;9.998;2023-06-19T04:34:47;21.00;99.90
15103;DHT22;7652;53.584;9.998;2023-06-19T04:38:09;21.00;99.90
15103;DHT22;7652;53.584;9.998;2023-06-19T04:41:30;21.10;99.90
15103;DHT22;7652;53.584;9.998;2023-06-19T04:44:53;21.10;99.90
15103;DHT22;7652;53.584;9.998;2023-06-19T04:48:15;21.10;99.90
15103;DHT22;7652;53.584;9.998;2023-06-19T04:51:36;21.10;99.90
15103;DHT22;7652;53.584;9.998;2023-06-19T04:54:58;21.10;99.90
15103;DHT22;7652;53.584;9.998;2023-06-19T04:58:19;21.10;99.90
15103;DHT22;7652;53.584;9.998;2023-06-19T05:01:42;21.00;99.90
15103;DHT22;7652;53.584;9.998;2023-06-19T05:05:06;21.00;99.90
15103;DHT22;7652;53.584;9.998;2023-06-19T05:08:27;21.10;99.90
15103;DHT22;7652;53.584;9.998;2023-06-19T05:11:49;21.10;99.90
15103;DHT22;7652;53.584;9.998;2023-06-19T05:15:11;21.10;99.90
15103;DHT22;7652;53.584;9.998;2023-06-19T05:18:33;21.10;99.90
15103;DHT22;7652;53.584;9.998;2023-06-19T05:21:55;21.10;99.90
15103;DHT22;7652;53.584;9.998;2023-06-19T05:25:16;21.20;99.90
15103;DHT22;7652;53.584;9.998;2023-06-19T05:28:38;21.10;99.90
15103;DHT22;7652;53.584;9.998;2023-06-19T05:31:59;21.10;99.90
15103;DHT22;7652;53.584;9.998;2023-06-19T05:35:22;21.10;99.90
15103;DHT22;7652;53.584;9.998;2023-06-19T05:38:44;21.10;99.90
15103;DHT22;7652;53.584;9.998;2023-06-19T05:42:06;21.10;99.90
15103;DHT22;7652;53.584;9.998;2023-06-19T05:45:27;21.10;99.90
15103;DHT22;7652;53.584;9.998;2023-06-19T05:48:49;21.10;99.90
15103;DHT22;7652;53.584;9.998;2023-06-19T05:52:12;21.10;99.90
15103;DHT22;7652;53.584;9.998;2023-06-19T05:55:33;21.10;99.90
15103;DHT22;7652;53.584;9.998;2023-06-19T05:58:55;21.10;99.90
15103;DHT22;7652;53.584;9.998;2023-06-19T06:02:20;21.20;99.90
15103;DHT22;7652;53.584;9.998;2023-06-19T06:05:42;21.10;99.90
15103;DHT22;7652;53.584;9.998;2023-06-19T06:09:05;21.20;99.90
15103;DHT22;7652;53.584;9.998;2023-06-19T06:12:29;21.20;99.90
15103;DHT22;7652;53.584;9.998;2023-06-19T06:15:50;21.30;99.90
15103;DHT22;7652;53.584;9.998;2023-06-19T06:19:12;21.30;99.90
15103;DHT22;7652;53.584;9.998;2023-06-19T06:22:33;21.40;99.90
15103;DHT22;7652;53.584;9.998;2023-06-19T06:25:56;21.40;99.90
15103;DHT22;7652;53.584;9.998;2023-06-19T06:29:22;21.30;99.90
15103;DHT22;7652;53.584;9.998;2023-06-19T06:32:44;21.20;99.90
15103;DHT22;7652;53.584;9.998;2023-06-19T06:36:05;21.10;99.90
15103;DHT22;7652;53.584;9.998;2023-06-19T06:39:28;21.00;99.90
15103;DHT22;7652;53.584;9.998;2023-06-19T06:42:51;21.10;99.90
15103;DHT22;7652;53.584;9.998;2023-06-19T06:46:14;21.00;99.90
15103;DHT22;7652;53.584;9.998;2023-06-19T06:49:36;21.00;99.90
15103;DHT22;7652;53.584;9.998;2023-06-19T06:52:57;21.10;99.90
15103;DHT22;7652;53.584;9.998;2023-06-19T06:56:19;21.00;99.90
15103;DHT22;7652;53.584;9.998;2023-06-19T06:59:42;20.90;99.90
15103;DHT22;7652;53.584;9.998;2023-06-19T07:03:03;21.10;99.90
15103;DHT22;7652;53.584;9.998;2023-06-19T07:06:25;21.10;99.90
15103;DHT22;7652;53.584;9.998;2023-06-19T07:09:47;21.20;99.90
15103;DHT22;7652;53.584;9.998;2023-06-19T07:13:08;21.20;99.90
15103;DHT22;7652;53.584;9.998;2023-06-19T07:16:31;21.30;99.90
15103;DHT22;7652;53.584;9.998;2023-06-19T07:19:52;21.30;99.90
15103;DHT22;7652;53.584;9.998;2023-06-19T07:23:14;21.40;99.90
15103;DHT22;7652;53.584;9.998;2023-06-19T07:26:36;21.50;99.90
15103;DHT22;7652;53.584;9.998;2023-06-19T07:29:57;21.50;99.90
15103;DHT22;7652;53.584;9.998;2023-06-19T07:33:20;21.60;99.90
15103;DHT22;7652;53.584;9.998;2023-06-19T07:36:42;21.60;99.90
15103;DHT22;7652;53.584;9.998;2023-06-19T07:40:04;21.60;99.90
15103;DHT22;7652;53.584;9.998;2023-06-19T07:43:26;21.70;99.90
15103;DHT22;7652;53.584;9.998;2023-06-19T07:46:47;21.80;99.90
15103;DHT22;7652;53.584;9.998;2023-06-19T07:50:10;21.80;99.90
15103;DHT22;7652;53.584;9.998;2023-06-19T07:53:31;21.80;99.90
15103;DHT22;7652;53.584;9.998;2023-06-19T07:56:53;21.80;99.90
15103;DHT22;7652;53.584;9.998;2023-06-19T08:00:15;21.90;99.90
15103;DHT22;7652;53.584;9.998;2023-06-19T08:03:36;21.90;99.90
15103;DHT22;7652;53.584;9.998;2023-06-19T08:07:00;22.10;99.90
15103;DHT22;7652;53.584;9.998;2023-06-19T08:10:21;22.20;99.90
15103;DHT22;7652;53.584;9.998;2023-06-19T08:13:43;22.40;99.90
15103;DHT22;7652;53.584;9.998;2023-06-19T08:17:05;22.70;99.90
15103;DHT22;7652;53.584;9.998;2023-06-19T08:20:27;22.80;99.90
15103;DHT22;7652;53.584;9.998;2023-06-19T08:23:50;23.00;99.90
15103;DHT22;7652;53.584;9.998;2023-06-19T08:27:12;23.20;99.90
15103;DHT22;7652;53.584;9.998;2023-06-19T08:30:33;23.30;99.90
15103;DHT22;7652;53.584;9.998;2023-06-19T08:33:55;23.50;99.90
15103;DHT22;7652;53.584;9.998;2023-06-19T08:37:17;23.50;99.90
15103;DHT22;7652;53.584;9.998;2023-06-19T08:40:41;23.70;99.90
15103;DHT22;7652;53.584;9.998;2023-06-19T08:44:04;23.80;99.90
15103;DHT22;7652;53.584;9.998;2023-06-19T08:47:29;24.00;99.90
15103;DHT22;7652;53.584;9.998;2023-06-19T08:50:50;24.20;99.90
15103;DHT22;7652;53.584;9.998;2023-06-19T08:54:12;24.30;99.90
15103;DHT22;7652;53.584;9.998;2023-06-19T08:57:37;24.40;99.90
15103;DHT22;7652;53.584;9.998;2023-06-19T09:00:58;24.60;99.90
15103;DHT22;7652;53.584;9.998;2023-06-19T09:04:21;24.70;99.90
15103;DHT22;7652;53.584;9.998;2023-06-19T09:07:43;24.80;99.90
15103;DHT22;7652;53.584;9.998;2023-06-19T09:11:05;24.80;99.90
15103;DHT22;7652;53.584;9.998;2023-06-19T09:14:36;24.90;99.90
15103;DHT22;7652;53.584;9.998;2023-06-19T09:18:02;24.90;99.90
15103;DHT22;7652;53.584;9.998;2023-06-19T09:21:24;24.90;99.90
15103;DHT22;7652;53.584;9.998;2023-06-19T09:24:45;25.00;99.90
15103;DHT22;7652;53.584;9.998;2023-06-19T09:28:17;25.00;99.90
15103;DHT22;7652;53.584;9.998;2023-06-19T09:31:39;25.20;99.90
15103;DHT22;7652;53.584;9.998;2023-06-19T09:35:02;25.30;99.90
15103;DHT22;7652;53.584;9.998;2023-06-19T09:38:26;25.40;99.90
15103;DHT22;7652;53.584;9.998;2023-06-19T09:41:50;25.60;99.90
15103;DHT22;7652;53.584;9.998;2023-06-19T09:45:13;25.80;99.90
15103;DHT22;7652;53.584;9.998;2023-06-19T09:48:41;25.90;99.90
15103;DHT22;7652;53.584;9.998;2023-06-19T09:52:03;25.90;99.90
15103;DHT22;7652;53.584;9.998;2023-06-19T09:55:26;25.70;99.90
15103;DHT22;7652;53.584;9.998;2023-06-19T09:58:53;25.70;99.90
15103;DHT22;7652;53.584;9.998;2023-06-19T10:02:16;25.70;99.90
15103;DHT22;7652;53.584;9.998;2023-06-19T10:05:40;25.80;99.90
15103;DHT22;7652;53.584;9.998;2023-06-19T10:09:09;25.80;99.90
15103;DHT22;7652;53.584;9.998;2023-06-19T10:12:35;25.90;99.90
15103;DHT22;7652;53.584;9.998;2023-06-19T10:15:57;26.00;99.90
15103;DHT22;7652;53.584;9.998;2023-06-19T10:19:21;26.10;99.90
15103;DHT22;7652;53.584;9.998;2023-06-19T10:22:52;26.20;99.90
15103;DHT22;7652;53.584;9.998;2023-06-19T10:26:15;26.40;99.90
15103;DHT22;7652;53.584;9.998;2023-06-19T10:29:41;26.50;99.90
15103;DHT22;7652;53.584;9.998;2023-06-19T10:33:23;26.60;99.90
15103;DHT22;7652;53.584;9.998;2023-06-19T10:36:45;26.80;99.90
15103;DHT22;7652;53.584;9.998;2023-06-19T10:40:08;26.80;99.90
15103;DHT22;7652;53.584;9.998;2023-06-19T10:43:30;26.70;99.90
15103;DHT22;7652;53.584;9.998;2023-06-19T10:46:53;26.60;99.90
15103;DHT22;7652;53.584;9.998;2023-06-19T10:50:15;26.70;99.90
15103;DHT22;7652;53.584;9.998;2023-06-19T10:53:36;26.80;99.90
15103;DHT22;7652;53.584;9.998;2023-06-19T10:57:03;27.00;99.90
15103;DHT22;7652;53.584;9.998;2023-06-19T11:00:26;27.20;99.90
15103;DHT22;7652;53.584;9.998;2023-06-19T11:03:48;27.20;99.90
15103;DHT22;7652;53.584;9.998;2023-06-19T11:07:12;27.30;99.90
15103;DHT22;7652;53.584;9.998;2023-06-19T11:10:33;27.30;99.90
15103;DHT22;7652;53.584;9.998;2023-06-19T11:13:56;27.40;99.90
15103;DHT22;7652;53.584;9.998;2023-06-19T11:17:17;27.60;99.90
15103;DHT22;7652;53.584;9.998;2023-06-19T11:20:46;27.60;99.90
15103;DHT22;7652;53.584;9.998;2023-06-19T11:24:11;27.60;99.90
15103;DHT22;7652;53.584;9.998;2023-06-19T11:27:34;27.90;99.90
15103;DHT22;7652;53.584;9.998;2023-06-19T11:31:01;28.00;99.90
15103;DHT22;7652;53.584;9.998;2023-06-19T11:34:31;28.30;99.90
15103;DHT22;7652;53.584;9.998;2023-06-19T11:37:53;28.50;99.90
15103;DHT22;7652;53.584;9.998;2023-06-19T11:41:24;28.50;99.90
15103;DHT22;7652;53.584;9.998;2023-06-19T11:44:53;28.60;99.90
15103;DHT22;7652;53.584;9.998;2023-06-19T11:48:23;28.70;99.90
15103;DHT22;7652;53.584;9.998;2023-06-19T11:51:44;28.80;99.90
15103;DHT22;7652;53.584;9.998;2023-06-19T11:55:07;28.70;99.90
15103;DHT22;7652;53.584;9.998;2023-06-19T11:58:28;28.50;99.90
15103;DHT22;7652;53.584;9.998;2023-06-19T12:01:50;28.50;99.90
15103;DHT22;7652;53.584;9.998;2023-06-19T12:05:13;28.30;99.90
15103;DHT22;7652;53.584;9.998;2023-06-19T12:08:35;28.30;99.90
15103;DHT22;7652;53.584;9.998;2023-06-19T12:11:57;28.30;99.90
15103;DHT22;7652;53.584;9.998;2023-06-19T12:15:18;28.30;99.90
15103;DHT22;7652;53.584;9.998;2023-06-19T12:18:40;28.20;99.90
15103;DHT22;7652;53.584;9.998;2023-06-19T12:22:04;28.00;99.90
15103;DHT22;7652;53.584;9.998;2023-06-19T12:25:25;28.10;99.90
15103;DHT22;7652;53.584;9.998;2023-06-19T12:28:46;28.20;99.90
15103;DHT22;7652;53.584;9.998;2023-06-19T12:32:10;28.30;99.90
15103;DHT22;7652;53.584;9.998;2023-06-19T12:35:31;28.30;99.90
15103;DHT22;7652;53.584;9.998;2023-06-19T12:38:54;28.20;99.90
15103;DHT22;7652;53.584;9.998;2023-06-19T12:42:15;28.20;99.90
15103;DHT22;7652;53.584;9.998;2023-06-19T12:45:37;28.30;99.90
15103;DHT22;7652;53.584;9.998;2023-06-19T12:48:58;28.50;99.90
15103;DHT22;7652;53.584;9.998;2023-06-19T12:52:19;28.60;99.90
15103;DHT22;7652;53.584;9.998;2023-06-19T12:55:42;29.00;99.90
15103;DHT22;7652;53.584;9.998;2023-06-19T12:59:20;29.20;99.90
15103;DHT22;7652;53.584;9.998;2023-06-19T13:02:41;29.30;99.90
15103;DHT22;7652;53.584;9.998;2023-06-19T13:06:03;29.40;99.90
15103;DHT22;7652;53.584;9.998;2023-06-19T13:09:25;29.40;99.90
15103;DHT22;7652;53.584;9.998;2023-06-19T13:12:48;29.00;99.90
15103;DHT22;7652;53.584;9.998;2023-06-19T13:16:09;28.70;99.90
15103;DHT22;7652;53.584;9.998;2023-06-19T13:19:34;28.50;99.90
15103;DHT22;7652;53.584;9.998;2023-06-19T13:22:55;28.70;99.90
15103;DHT22;7652;53.584;9.998;2023-06-19T13:26:17;28.80;99.90
15103;DHT22;7652;53.584;9.998;2023-06-19T13:29:40;28.60;99.90
15103;DHT22;7652;53.584;9.998;2023-06-19T13:33:02;28.40;99.90
15103;DHT22;7652;53.584;9.998;2023-06-19T13:36:24;28.30;99.90
15103;DHT22;7652;53.584;9.998;2023-06-19T13:39:47;28.50;99.90
15103;DHT22;7652;53.584;9.998;2023-06-19T13:43:09;28.80;99.90
15103;DHT22;7652;53.584;9.998;2023-06-19T13:46:32;28.90;99.90
15103;DHT22;7652;53.584;9.998;2023-06-19T13:49:54;29.00;99.90
15103;DHT22;7652;53.584;9.998;2023-06-19T13:53:15;29.00;99.90
15103;DHT22;7652;53.584;9.998;2023-06-19T13:56:37;28.80;99.90
15103;DHT22;7652;53.584;9.998;2023-06-19T13:59:58;28.60;99.90
15103;DHT22;7652;53.584;9.998;2023-06-19T14:03:21;28.70;99.90
15103;DHT22;7652;53.584;9.998;2023-06-19T14:06:44;28.70;99.90
15103;DHT22;7652;53.584;9.998;2023-06-19T14:10:07;28.70;99.90
15103;DHT22;7652;53.584;9.998;2023-06-19T14:13:28;28.90;99.90
15103;DHT22;7652;53.584;9.998;2023-06-19T14:16:50;28.90;99.90
15103;DHT22;7652;53.584;9.998;2023-06-19T14:20:13;28.80;99.90
15103;DHT22;7652;53.584;9.998;2023-06-19T14:23:34;28.60;99.90
15103;DHT22;7652;53.584;9.998;2023-06-19T14:27:01;28.50;99.90
15103;DHT22;7652;53.584;9.998;2023-06-19T14:30:22;28.30;99.90
15103;DHT22;7652;53.584;9.998;2023-06-19T14:33:44;28.10;99.90
15103;DHT22;7652;53.584;9.998;2023-06-19T14:37:07;28.00;99.90
15103;DHT22;7652;53.584;9.998;2023-06-19T14:40:28;27.90;99.90
15103;DHT22;7652;53.584;9.998;2023-06-19T14:43:49;27.60;99.90
15103;DHT22;7652;53.584;9.998;2023-06-19T14:47:10;27.50;99.90
15103;DHT22;7652;53.584;9.998;2023-06-19T14:50:34;27.30;99.90
15103;DHT22;7652;53.584;9.998;2023-06-19T14:53:57;27.10;99.90
15103;DHT22;7652;53.584;9.998;2023-06-19T14:57:18;27.10;99.90
15103;DHT22;7652;53.584;9.998;2023-06-19T15:00:40;27.00;99.90
15103;DHT22;7652;53.584;9.998;2023-06-19T15:04:01;26.80;99.90
15103;DHT22;7652;53.584;9.998;2023-06-19T15:07:24;26.80;99.90
15103;DHT22;7652;53.584;9.998;2023-06-19T15:10:47;26.80;99.90
15103;DHT22;7652;53.584;9.998;2023-06-19T15:14:08;26.70;99.90
15103;DHT22;7652;53.584;9.998;2023-06-19T15:17:30;26.70;99.90
15103;DHT22;7652;53.584;9.998;2023-06-19T15:20:51;26.80;99.90
15103;DHT22;7652;53.584;9.998;2023-06-19T15:24:13;26.70;99.90
15103;DHT22;7652;53.584;9.998;2023-06-19T15:27:35;26.60;99.90
15103;DHT22;7652;53.584;9.998;2023-06-19T15:30:57;26.50;99.90
15103;DHT22;7652;53.584;9.998;2023-06-19T15:34:18;26.50;99.90
15103;DHT22;7652;53.584;9.998;2023-06-19T15:37:40;26.40;99.90
15103;DHT22;7652;53.584;9.998;2023-06-19T15:41:01;26.60;99.90
15103;DHT22;7652;53.584;9.998;2023-06-19T15:44:24;26.80;99.90
15103;DHT22;7652;53.584;9.998;2023-06-19T15:47:46;26.80;99.90
15103;DHT22;7652;53.584;9.998;2023-06-19T15:51:08;26.80;99.90
15103;DHT22;7652;53.584;9.998;2023-06-19T15:54:30;26.80;99.90
15103;DHT22;7652;53.584;9.998;2023-06-19T15:57:51;26.80;99.90
15103;DHT22;7652;53.584;9.998;2023-06-19T16:01:14;26.70;99.90
15103;DHT22;7652;53.584;9.998;2023-06-19T16:04:36;26.50;99.90
15103;DHT22;7652;53.584;9.998;2023-06-19T16:07:59;26.50;99.90
15103;DHT22;7652;53.584;9.998;2023-06-19T16:11:20;26.60;99.90
15103;DHT22;7652;53.584;9.998;2023-06-19T16:14:41;26.70;99.90
15103;DHT22;7652;53.584;9.998;2023-06-19T16:18:04;26.70;99.90
15103;DHT22;7652;53.584;9.998;2023-06-19T16:21:25;26.80;99.90
15103;DHT22;7652;53.584;9.998;2023-06-19T16:24:48;26.70;99.90
15103;DHT22;7652;53.584;9.998;2023-06-19T16:28:09;26.70;99.90
15103;DHT22;7652;53.584;9.998;2023-06-19T16:31:31;26.60;99.90
15103;DHT22;7652;53.584;9.998;2023-06-19T16:34:54;26.50;99.90
15103;DHT22;7652;53.584;9.998;2023-06-19T16:38:15;26.30;99.90
15103;DHT22;7652;53.584;9.998;2023-06-19T16:41:37;26.20;99.90
15103;DHT22;7652;53.584;9.998;2023-06-19T16:44:58;26.10;99.90
15103;DHT22;7652;53.584;9.998;2023-06-19T16:48:20;26.10;99.90
15103;DHT22;7652;53.584;9.998;2023-06-19T16:51:42;26.00;99.90
15103;DHT22;7652;53.584;9.998;2023-06-19T16:55:04;25.90;99.90
15103;DHT22;7652;53.584;9.998;2023-06-19T16:58:26;25.80;99.90
15103;DHT22;7652;53.584;9.998;2023-06-19T17:01:47;25.70;99.90
15103;DHT22;7652;53.584;9.998;2023-06-19T17:05:09;25.60;99.90
15103;DHT22;7652;53.584;9.998;2023-06-19T17:08:32;25.60;99.90
15103;DHT22;7652;53.584;9.998;2023-06-19T17:11:53;25.50;99.90
15103;DHT22;7652;53.584;9.998;2023-06-19T17:15:15;25.50;99.90
15103;DHT22;7652;53.584;9.998;2023-06-19T17:18:37;25.50;99.90
15103;DHT22;7652;53.584;9.998;2023-06-19T17:21:59;25.50;99.90
15103;DHT22;7652;53.584;9.998;2023-06-19T17:25:22;25.60;99.90
15103;DHT22;7652;53.584;9.998;2023-06-19T17:28:43;25.60;99.90
15103;DHT22;7652;53.584;9.998;2023-06-19T17:32:05;25.60;99.90
15103;DHT22;7652;53.584;9.998;2023-06-19T17:35:28;25.60;99.90
15103;DHT22;7652;53.584;9.998;2023-06-19T17:38:50;25.60;99.90
15103;DHT22;7652;53.584;9.998;2023-06-19T17:42:12;25.60;99.90
15103;DHT22;7652;53.584;9.998;2023-06-19T17:45:34;25.70;99.90
15103;DHT22;7652;53.584;9.998;2023-06-19T17:48:55;25.60;99.90
15103;DHT22;7652;53.584;9.998;2023-06-19T17:52:16;25.60;99.90
15103;DHT22;7652;53.584;9.998;2023-06-19T17:55:38;25.70;99.90
15103;DHT22;7652;53.584;9.998;2023-06-19T17:59:02;25.80;99.90
15103;DHT22;7652;53.584;9.998;2023-06-19T18:02:24;25.70;99.90
15103;DHT22;7652;53.584;9.998;2023-06-19T18:05:46;25.60;99.90
15103;DHT22;7652;53.584;9.998;2023-06-19T18:09:07;25.40;99.90
15103;DHT22;7652;53.584;9.998;2023-06-19T18:12:29;25.40;99.90
15103;DHT22;7652;53.584;9.998;2023-06-19T18:15:52;25.30;99.90
15103;DHT22;7652;53.584;9.998;2023-06-19T18:19:31;25.30;99.90
15103;DHT22;7652;53.584;9.998;2023-06-19T18:22:53;25.20;99.90
15103;DHT22;7652;53.584;9.998;2023-06-19T18:26:14;25.00;99.90
15103;DHT22;7652;53.584;9.998;2023-06-19T18:29:35;24.80;99.90
15103;DHT22;7652;53.584;9.998;2023-06-19T18:32:58;24.70;99.90
15103;DHT22;7652;53.584;9.998;2023-06-19T18:36:20;24.70;99.90
15103;DHT22;7652;53.584;9.998;2023-06-19T18:39:41;24.50;99.90
15103;DHT22;7652;53.584;9.998;2023-06-19T18:43:03;24.50;99.90
15103;DHT22;7652;53.584;9.998;2023-06-19T18:46:24;24.40;99.90
15103;DHT22;7652;53.584;9.998;2023-06-19T18:49:47;24.30;99.90
15103;DHT22;7652;53.584;9.998;2023-06-19T18:53:10;24.20;99.90
15103;DHT22;7652;53.584;9.998;2023-06-19T18:56:31;24.20;99.90
15103;DHT22;7652;53.584;9.998;2023-06-19T18:59:53;24.20;99.90
15103;DHT22;7652;53.584;9.998;2023-06-19T19:03:15;24.00;99.90
15103;DHT22;7652;53.584;9.998;2023-06-19T19:06:39;24.00;99.90
15103;DHT22;7652;53.584;9.998;2023-06-19T19:10:00;23.90;99.90
15103;DHT22;7652;53.584;9.998;2023-06-19T19:13:22;23.90;99.90
15103;DHT22;7652;53.584;9.998;2023-06-19T19:16:43;23.80;99.90
15103;DHT22;7652;53.584;9.998;2023-06-19T19:20:06;23.70;99.90
15103;DHT22;7652;53.584;9.998;2023-06-19T19:23:30;23.60;99.90
15103;DHT22;7652;53.584;9.998;2023-06-19T19:26:52;23.50;99.90
15103;DHT22;7652;53.584;9.998;2023-06-19T19:30:14;23.50;99.90
15103;DHT22;7652;53.584;9.998;2023-06-19T19:33:36;23.50;99.90
15103;DHT22;7652;53.584;9.998;2023-06-19T19:36:57;23.40;99.90
15103;DHT22;7652;53.584;9.998;2023-06-19T19:40:20;23.40;99.90
15103;DHT22;7652;53.584;9.998;2023-06-19T19:43:42;23.30;99.90
15103;DHT22;7652;53.584;9.998;2023-06-19T19:47:04;23.20;99.90
15103;DHT22;7652;53.584;9.998;2023-06-19T19:50:26;23.00;99.90
15103;DHT22;7652;53.584;9.998;2023-06-19T19:53:48;22.90;99.90
15103;DHT22;7652;53.584;9.998;2023-06-19T19:57:11;22.90;99.90
15103;DHT22;7652;53.584;9.998;2023-06-19T20:00:32;22.80;99.90
15103;DHT22;7652;53.584;9.998;2023-06-19T20:03:53;22.70;99.90
15103;DHT22;7652;53.584;9.998;2023-06-19T20:07:15;22.70;99.90
15103;DHT22;7652;53.584;9.998;2023-06-19T20:10:37;22.60;99.90
15103;DHT22;7652;53.584;9.998;2023-06-19T20:14:00;22.60;99.90
15103;DHT22;7652;53.584;9.998;2023-06-19T20:17:21;22.70;99.90
15103;DHT22;7652;53.584;9.998;2023-06-19T20:20:43;22.60;99.90
15103;DHT22;7652;53.584;9.998;2023-06-19T20:24:05;22.40;99.90
15103;DHT22;7652;53.584;9.998;2023-06-19T20:27:26;22.30;99.90
15103;DHT22;7652;53.584;9.998;2023-06-19T20:30:49;22.20;99.90
15103;DHT22;7652;53.584;9.998;2023-06-19T20:34:11;22.10;99.90
15103;DHT22;7652;53.584;9.998;2023-06-19T20:37:32;22.00;99.90
15103;DHT22;7652;53.584;9.998;2023-06-19T20:40:54;22.00;99.90
15103;DHT22;7652;53.584;9.998;2023-06-19T20:44:15;22.00;99.90
15103;DHT22;7652;53.584;9.998;2023-06-19T20:47:38;21.90;99.90
15103;DHT22;7652;53.584;9.998;2023-06-19T20:50:59;21.80;99.90
15103;DHT22;7652;53.584;9.998;2023-06-19T20:54:21;21.70;99.90
15103;DHT22;7652;53.584;9.998;2023-06-19T20:57:42;21.70;99.90
15103;DHT22;7652;53.584;9.998;2023-06-19T21:01:04;21.60;99.90
15103;DHT22;7652;53.584;9.998;2023-06-19T21:04:27;21.40;99.90
15103;DHT22;7652;53.584;9.998;2023-06-19T21:07:48;21.50;99.90
15103;DHT22;7652;53.584;9.998;2023-06-19T21:11:12;21.50;99.90
15103;DHT22;7652;53.584;9.998;2023-06-19T21:14:33;21.40;99.90
15103;DHT22;7652;53.584;9.998;2023-06-19T21:17:54;21.30;99.90
15103;DHT22;7652;53.584;9.998;2023-06-19T21:21:17;21.10;99.90
15103;DHT22;7652;53.584;9.998;2023-06-19T21:24:39;21.10;99.90
15103;DHT22;7652;53.584;9.998;2023-06-19T21:28:00;21.10;99.90
15103;DHT22;7652;53.584;9.998;2023-06-19T21:31:22;21.00;99.90
15103;DHT22;7652;53.584;9.998;2023-06-19T21:34:43;20.80;99.90
15103;DHT22;7652;53.584;9.998;2023-06-19T21:38:06;20.70;99.90